createdAt,value
2022-12-11T00:04:04.981Z,99675.81
2022-12-11T00:09:06.626Z,99673.09
2022-12-11T00:14:08.429Z,99672.13
2022-12-11T00:19:10.119Z,99670.81
2022-12-11T00:24:11.779Z,99676.09
2022-12-11T00:29:14.831Z,99685.91
2022-12-11T00:34:19.230Z,99683.09
2022-12-11T00:39:20.887Z,99673.16
2022-12-11T00:44:22.540Z,99681.38
2022-12-11T00:49:24.162Z,99680.72
2022-12-11T00:54:26.098Z,99676.47
2022-12-11T00:59:28.573Z,99687.22
2022-12-11T01:04:30.409Z,99686.47
2022-12-11T01:09:50.601Z,99681.94
2022-12-11T01:14:52.246Z,99682.03
2022-12-11T01:19:54.854Z,99691.28
2022-12-11T01:24:56.479Z,99687.69
2022-12-11T01:29:58.438Z,99699.38
2022-12-11T01:35:00.570Z,99696.06
2022-12-11T01:40:02.220Z,99698.03
2022-12-11T01:45:23.836Z,99701.63
2022-12-11T01:50:28.269Z,99697.44
2022-12-11T01:55:29.975Z,99696.66
2022-12-11T02:00:31.648Z,99699.22
2022-12-11T02:05:33.404Z,99692.25
2022-12-11T02:10:41.113Z,99687.56
2022-12-11T02:15:50.108Z,99688.59
2022-12-11T02:21:13.089Z,99684.22
2022-12-11T02:26:39.641Z,99685.16
2022-12-11T02:31:41.266Z,99676.28
2022-12-11T02:36:50.507Z,99673.81
2022-12-11T02:41:52.342Z,99680.13
2022-12-11T02:46:54.873Z,99678.53
2022-12-11T02:51:57.012Z,99684.94
2022-12-11T02:57:17.545Z,99687.75
2022-12-11T03:02:19.364Z,99673.69
2022-12-11T03:07:25.416Z,99685.13
2022-12-11T03:12:33.283Z,99682.47
2022-12-11T03:18:02.859Z,99680.84
2022-12-11T03:23:12.991Z,99685.38
2022-12-11T03:28:21.248Z,99683.84
2022-12-11T03:33:30.048Z,99689.13
2022-12-11T03:38:36.081Z,99685.56
2022-12-11T03:43:38.806Z,99693.41
2022-12-11T03:48:41.916Z,99694.25
2022-12-11T03:53:44.103Z,99695.00
2022-12-11T03:58:45.779Z,99688.97
2022-12-11T04:03:47.441Z,99688.03
2022-12-11T04:08:49.136Z,99687.75
2022-12-11T04:14:10.904Z,99686.81
2022-12-11T04:19:30.856Z,99686.31
2022-12-11T04:24:38.536Z,99698.41
2022-12-11T04:29:40.374Z,99696.81
2022-12-11T04:34:42.386Z,99696.44
2022-12-11T04:39:44.275Z,99688.44
2022-12-11T04:44:45.946Z,99672.56
2022-12-11T04:49:47.571Z,99674.19
2022-12-11T04:54:49.209Z,99687.75
2022-12-11T04:59:50.843Z,99680.59
2022-12-11T05:04:52.575Z,99671.72
2022-12-11T05:09:54.261Z,99668.03
2022-12-11T05:14:55.952Z,99671.44
2022-12-11T05:19:57.546Z,99657.28
2022-12-11T05:24:59.184Z,99664.06
2022-12-11T05:30:00.802Z,99660.97
2022-12-11T05:35:03.754Z,99664.44
2022-12-11T05:40:06.412Z,99663.09
2022-12-11T05:45:08.704Z,99654.41
2022-12-11T05:50:10.984Z,99643.41
2022-12-11T05:55:15.413Z,99646.81
2022-12-11T06:00:17.066Z,99649.72
2022-12-11T06:05:18.701Z,99649.56
2022-12-11T06:10:20.351Z,99652.38
2022-12-11T06:15:22.238Z,99656.47
2022-12-11T06:20:23.854Z,99656.38
2022-12-11T06:25:25.851Z,99661.41
2022-12-11T06:30:38.733Z,99669.50
2022-12-11T06:35:42.473Z,99667.78
2022-12-11T06:40:44.531Z,99666.59
2022-12-11T06:45:46.243Z,99666.84
2022-12-11T06:50:47.905Z,99669.25
2022-12-11T06:55:49.593Z,99668.81
2022-12-11T07:00:51.278Z,99674.00
2022-12-11T07:05:52.949Z,99681.59
2022-12-11T07:10:57.234Z,99686.69
2022-12-11T07:16:00.294Z,99690.34
2022-12-11T07:21:01.942Z,99688.91
2022-12-11T07:26:12.180Z,99689.06
2022-12-11T07:31:16.412Z,99686.34
2022-12-11T07:36:18.324Z,99694.09
2022-12-11T07:41:23.235Z,99697.75
2022-12-11T07:46:30.183Z,99699.63
2022-12-11T07:51:35.565Z,99702.03
2022-12-11T07:56:37.196Z,99701.69
2022-12-11T08:01:39.807Z,99702.03
2022-12-11T08:06:42.396Z,99701.25
2022-12-11T08:11:44.225Z,99700.56
2022-12-11T08:16:47.335Z,99718.34
2022-12-11T08:21:49.029Z,99706.91
2022-12-11T08:26:50.699Z,99707.84
2022-12-11T08:31:52.406Z,99702.91
2022-12-11T08:36:54.304Z,99702.91
2022-12-11T08:41:55.941Z,99699.34
2022-12-11T08:46:57.583Z,99687.69
2022-12-11T08:51:59.183Z,99689.69
2022-12-11T08:57:00.805Z,99688.13
2022-12-11T09:02:02.463Z,99690.63
2022-12-11T09:07:04.442Z,99692.22
2022-12-11T09:12:06.340Z,99703.56
2022-12-11T09:17:08.879Z,99705.78
2022-12-11T09:22:13.320Z,99702.97
2022-12-11T09:27:15.014Z,99700.25
2022-12-11T09:32:16.676Z,99700.31
2022-12-11T09:37:18.715Z,99691.72
2022-12-11T09:42:37.421Z,99684.81
2022-12-11T09:47:44.389Z,99685.75
2022-12-11T09:52:54.709Z,99688.56
2022-12-11T09:58:05.353Z,99698.03
2022-12-11T10:03:15.795Z,99688.03
2022-12-11T10:08:41.926Z,99692.13
2022-12-11T10:14:06.213Z,99679.41
2022-12-11T10:19:25.216Z,99672.56
2022-12-11T10:25:12.559Z,99659.84
2022-12-11T10:30:24.079Z,99651.41
2022-12-11T10:35:39.561Z,99652.44
2022-12-11T10:40:44.724Z,99654.72
2022-12-11T10:45:58.534Z,99662.91
2022-12-11T10:51:06.264Z,99654.78
2022-12-11T10:56:07.824Z,99644.63
2022-12-11T11:01:18.738Z,99644.53
2022-12-11T11:06:22.143Z,99640.00
2022-12-11T11:11:33.940Z,99636.88
2022-12-11T11:16:38.207Z,99632.28
2022-12-11T11:21:49.160Z,99614.41
2022-12-11T11:27:12.802Z,99615.16
2022-12-11T11:32:33.030Z,99621.00
2022-12-11T11:37:34.971Z,99613.53
2022-12-11T11:42:45.904Z,99608.25
2022-12-11T11:48:03.121Z,99600.03
2022-12-11T11:53:15.956Z,99606.56
2022-12-11T11:58:25.733Z,99581.53
2022-12-11T12:03:28.772Z,99571.50
2022-12-11T12:08:36.152Z,99588.78
2022-12-11T12:13:53.672Z,99581.34
2022-12-11T12:19:23.454Z,99581.41
2022-12-11T12:24:43.408Z,99574.38
2022-12-11T12:30:21.838Z,99581.38
2022-12-11T12:35:37.633Z,99579.72
2022-12-11T12:41:18.897Z,99573.78
2022-12-11T12:46:51.812Z,99568.41
2022-12-11T12:51:56.717Z,99571.13
2022-12-11T12:57:01.660Z,99559.59
2022-12-11T13:02:04.642Z,99550.84
2022-12-11T13:07:15.253Z,99554.69
2022-12-11T13:12:38.201Z,99550.84
2022-12-11T13:17:39.901Z,99551.41
2022-12-11T13:22:48.949Z,99546.59
2022-12-11T13:27:50.874Z,99544.38
2022-12-11T13:33:05.225Z,99552.44
2022-12-11T13:38:20.829Z,99546.22
2022-12-11T13:43:25.201Z,99554.75
2022-12-11T13:48:50.613Z,99559.44
2022-12-11T13:54:17.010Z,99563.69
2022-12-11T13:59:29.219Z,99568.50
2022-12-11T14:04:32.308Z,99565.09
2022-12-11T14:09:34.031Z,99563.69
2022-12-11T14:14:44.766Z,99554.78
2022-12-11T14:19:49.729Z,99563.22
2022-12-11T14:24:53.350Z,99577.34
2022-12-11T14:29:55.258Z,99568.19
2022-12-11T14:34:57.217Z,99561.72
2022-12-11T14:40:09.151Z,99571.78
2022-12-11T14:45:20.472Z,99571.56
2022-12-11T14:50:38.358Z,99586.03
2022-12-11T14:55:40.112Z,99584.44
2022-12-11T15:00:44.473Z,99580.41
2022-12-11T15:05:54.550Z,99579.66
2022-12-11T15:11:13.850Z,99583.56
2022-12-11T15:16:16.043Z,99586.91
2022-12-11T15:21:18.175Z,99592.25
2022-12-11T15:26:22.920Z,99580.09
2022-12-11T15:31:33.580Z,99585.09
2022-12-11T15:36:36.237Z,99578.22
2022-12-11T15:41:38.007Z,99580.94
2022-12-11T15:46:39.989Z,99575.03
2022-12-11T15:51:44.821Z,99581.34
2022-12-11T15:56:47.034Z,99578.69
2022-12-11T16:01:49.121Z,99589.59
2022-12-11T16:06:51.363Z,99585.94
2022-12-11T16:11:53.042Z,99598.44
2022-12-11T16:16:54.761Z,99596.50
2022-12-11T16:21:56.420Z,99594.53
2022-12-11T16:26:59.201Z,99592.75
2022-12-11T16:32:01.031Z,99602.44
2022-12-11T16:37:03.770Z,99595.38
2022-12-11T16:42:08.665Z,99596.06
2022-12-11T16:47:10.776Z,99593.44
2022-12-11T16:52:15.290Z,99588.31
2022-12-11T16:57:19.353Z,99590.66
2022-12-11T17:02:21.239Z,99587.38
2022-12-11T17:07:22.905Z,99593.44
2022-12-11T17:12:27.740Z,99595.97
2022-12-11T17:17:29.449Z,99601.19
2022-12-11T17:22:31.359Z,99598.69
2022-12-11T17:27:33.018Z,99601.78
2022-12-11T17:32:34.639Z,99597.16
2022-12-11T17:37:36.320Z,99599.81
2022-12-11T17:42:37.939Z,99599.81
2022-12-11T17:47:39.880Z,99599.63
2022-12-11T17:52:44.290Z,99602.28
2022-12-11T17:57:46.527Z,99609.19
2022-12-11T18:02:48.749Z,99598.78
2022-12-11T18:07:55.891Z,99605.00
2022-12-11T18:12:59.348Z,99592.75
2022-12-11T18:18:00.971Z,99588.31
2022-12-11T18:23:02.819Z,99591.81
2022-12-11T18:28:04.968Z,99603.91
2022-12-11T18:33:07.025Z,99603.75
2022-12-11T18:38:12.247Z,99608.78
2022-12-11T18:43:14.069Z,99596.59
2022-12-11T18:48:16.166Z,99593.28
2022-12-11T18:53:18.805Z,99593.13
2022-12-11T18:58:20.873Z,99589.44
2022-12-11T19:36:59.006Z,99584.09
2022-12-11T19:42:03.695Z,99588.50
2022-12-11T19:47:12.340Z,99586.13
2022-12-11T19:52:14.575Z,99588.59
2022-12-11T19:57:30.017Z,99585.16
2022-12-11T20:02:34.345Z,99586.38
2022-12-11T20:07:38.512Z,99587.97
2022-12-11T20:12:42.736Z,99595.72
2022-12-11T20:17:47.979Z,99582.69
2022-12-11T20:22:53.805Z,99586.78
2022-12-11T20:27:57.483Z,99585.00
2022-12-11T20:32:59.310Z,99579.47
2022-12-11T20:38:01.034Z,99586.19
2022-12-11T20:43:02.674Z,99590.44
2022-12-11T20:48:04.628Z,99586.97
2022-12-11T20:53:06.673Z,99582.78
2022-12-11T20:58:08.955Z,99583.72
2022-12-11T21:03:51.825Z,99584.75
2022-12-11T21:15:01.795Z,99574.69
2022-12-11T21:20:04.213Z,99564.66
2022-12-11T21:25:06.476Z,99572.75
2022-12-11T21:30:11.960Z,99574.44
2022-12-11T21:35:14.179Z,99570.88
2022-12-11T21:40:24.663Z,99569.94
2022-12-11T21:51:47.811Z,99567.81
2022-12-11T21:56:53.582Z,99551.47
2022-12-11T22:01:55.280Z,99554.03
2022-12-11T22:07:03.400Z,99547.88
2022-12-11T22:12:06.721Z,99550.78
2022-12-11T22:17:11.091Z,99555.03
2022-12-11T22:22:21.984Z,99553.75
2022-12-11T22:27:30.909Z,99555.63
2022-12-11T22:32:40.161Z,99538.59
2022-12-11T22:37:41.756Z,99550.00
2022-12-11T22:42:44.138Z,99550.94
2022-12-11T22:47:45.785Z,99552.56
2022-12-11T22:52:47.485Z,99549.84
2022-12-11T22:57:50.531Z,99558.69
2022-12-11T23:02:53.639Z,99558.88
2022-12-11T23:07:55.488Z,99557.09
2022-12-11T23:12:57.156Z,99551.13
2022-12-11T23:17:58.900Z,99558.00
2022-12-11T23:23:00.970Z,99564.06
2022-12-11T23:28:02.890Z,99564.91
2022-12-11T23:33:06.595Z,99575.56
2022-12-11T23:38:08.286Z,99573.00
2022-12-11T23:43:09.904Z,99574.69
2022-12-11T23:48:14.881Z,99556.31
2022-12-11T23:53:16.685Z,99557.25
2022-12-11T23:58:18.582Z,99561.69
